Time;durP1;ratioP1;P1;durP2;ratioP2;P2;SDS_P1;SDS_P2;PMS_P1;PMS_P2;Temp;Humidity;BMP_temperature;BMP_pressure;BME280_temperature;BME280_humidity;BME280_pressure;Samples;Min_cycle;Max_cycle;Signal;HPM_P1;HPM_P2
2021/10/25 00:00:57;;;;;;;0.20;0.20;;;;;;;1.54;100.00;100895.81;5042617;28;20454;-49
2021/10/25 00:03:23;;;;;;;0.20;0.10;;;;;;;1.45;100.00;100890.41;5039545;28;20448;-49
2021/10/25 00:05:50;;;;;;;0.20;0.10;;;;;;;1.35;100.00;100889.34;5045177;28;20517;-49
2021/10/25 00:08:17;;;;;;;0.20;0.10;;;;;;;1.45;100.00;100891.28;5037157;28;20439;-49
2021/10/25 00:10:44;;;;;;;0.37;0.37;;;;;;;1.27;100.00;100887.44;5044669;28;20530;-49
2021/10/25 00:13:11;;;;;;;1.03;0.93;;;;;;;1.41;100.00;100883.34;5046903;28;20854;-49
2021/10/25 00:15:38;;;;;;;0.20;0.10;;;;;;;1.31;100.00;100882.28;5043045;28;20497;-49
2021/10/25 00:18:05;;;;;;;0.60;0.60;;;;;;;1.40;100.00;100884.19;5040193;28;20590;-49
2021/10/25 00:20:33;;;;;;;0.40;0.40;;;;;;;1.26;100.00;100881.34;5044319;28;20444;-49
2021/10/25 00:23:00;;;;;;;0.20;0.20;;;;;;;1.11;100.00;100876.69;5047171;28;20479;-49
2021/10/25 00:25:26;;;;;;;0.20;0.10;;;;;;;1.19;100.00;100882.94;5042935;28;20540;-49
2021/10/25 00:27:53;;;;;;;0.30;0.20;;;;;;;1.24;100.00;100879.53;5039926;28;20447;-49
2021/10/25 00:30:20;;;;;;;0.20;0.10;;;;;;;1.16;100.00;100875.03;5043107;28;20494;-49
2021/10/25 00:32:47;;;;;;;0.20;0.10;;;;;;;1.27;100.00;100876.97;5048508;28;20483;-49
2021/10/25 00:35:13;;;;;;;0.30;0.20;;;;;;;1.25;100.00;100874.34;5053187;28;20471;-50
2021/10/25 00:37:40;;;;;;;0.30;0.10;;;;;;;1.21;100.00;100874.22;5039670;28;20882;-49
2021/10/25 00:40:07;;;;;;;0.20;0.10;;;;;;;0.98;100.00;100872.06;5044367;28;20448;-49
2021/10/25 00:42:34;;;;;;;1.40;1.40;;;;;;;1.11;100.00;100867.97;5035120;28;20463;-49
2021/10/25 00:45:01;;;;;;;0.20;0.10;;;;;;;1.17;100.00;100871.56;5044042;28;20484;-49
2021/10/25 00:47:27;;;;;;;0.20;0.10;;;;;;;1.02;100.00;100871.28;5046503;28;20451;-49
2021/10/25 00:49:54;;;;;;;0.20;0.10;;;;;;;0.99;100.00;100870.34;5041873;28;20521;-49
2021/10/25 00:52:21;;;;;;;0.30;0.20;;;;;;;0.94;100.00;100877.19;5039495;28;20505;-49
2021/10/25 00:54:47;;;;;;;0.20;0.10;;;;;;;0.90;100.00;100871.03;5047992;28;20844;-49
2021/10/25 00:57:14;;;;;;;0.30;0.20;;;;;;;0.87;100.00;100870.97;5039378;28;20452;-49
2021/10/25 00:59:40;;;;;;;0.53;0.53;;;;;;;0.93;100.00;100872.81;5043799;28;20443;-49
2021/10/25 01:02:07;;;;;;;0.20;0.10;;;;;;;0.99;100.00;100880.81;5046309;28;20870;-49
2021/10/25 01:04:34;;;;;;;0.20;0.17;;;;;;;0.87;100.00;100873.59;5041935;28;20482;-49
2021/10/25 01:07:01;;;;;;;0.20;0.10;;;;;;;0.95;100.00;100881.56;5038941;28;20471;-49
2021/10/25 01:09:29;;;;;;;0.20;0.20;;;;;;;0.90;100.00;100884.13;5042904;28;20985;-49
2021/10/25 01:11:56;;;;;;;0.20;0.20;;;;;;;0.95;100.00;100881.56;5046380;28;20443;-49
2021/10/25 01:14:23;;;;;;;0.20;0.10;;;;;;;0.98;100.00;100874.69;5042461;28;20443;-49
2021/10/25 01:16:50;;;;;;;0.20;0.20;;;;;;;0.96;100.00;100865.03;5038881;28;20475;-50
2021/10/25 01:19:16;;;;;;;0.80;0.80;;;;;;;1.09;100.00;100873.13;5042796;28;20456;-49
2021/10/25 01:21:43;;;;;;;0.97;0.97;;;;;;;1.19;100.00;100869.84;5045677;28;20443;-49
2021/10/25 01:24:10;;;;;;;0.20;0.10;;;;;;;1.29;100.00;100872.66;5034112;28;20517;-49
2021/10/25 01:26:36;;;;;;;0.20;0.10;;;;;;;1.28;100.00;100873.50;5046174;28;20488;-50
2021/10/25 01:29:04;;;;;;;0.20;0.10;;;;;;;1.28;100.00;100877.00;5042591;28;20520;-50
2021/10/25 01:31:31;;;;;;;0.20;0.10;;;;;;;1.31;100.00;100876.16;5038796;28;20905;-50
2021/10/25 01:33:58;;;;;;;0.20;0.10;;;;;;;1.32;100.00;100875.31;5040735;28;20830;-51
2021/10/25 01:36:24;;;;;;;0.20;0.10;;;;;;;1.44;100.00;100867.69;5023623;28;20885;-50
2021/10/25 01:38:51;;;;;;;0.20;0.10;;;;;;;1.44;100.00;100872.91;5040644;28;20497;-50
2021/10/25 01:41:18;;;;;;;0.20;0.10;;;;;;;1.33;100.00;100870.09;5044828;28;20466;-50
2021/10/25 01:43:45;;;;;;;2.40;0.73;;;;;;;1.48;100.00;100866.88;5044256;28;21003;-50
2021/10/25 01:46:12;;;;;;;0.20;0.10;;;;;;;1.59;100.00;100862.69;5038810;28;20506;-50
2021/10/25 01:48:38;;;;;;;0.30;0.20;;;;;;;1.47;100.00;100857.25;5039727;28;20875;-51
2021/10/25 01:51:05;;;;;;;0.20;0.20;;;;;;;1.45;100.00;100849.38;5045123;28;21081;-50
2021/10/25 01:53:35;;;;;;;0.20;0.10;;;;;;;1.42;100.00;100856.28;5041473;28;21018;-50
2021/10/25 01:56:03;;;;;;;0.20;0.10;;;;;;;1.55;100.00;100860.00;5025688;28;20471;-50
2021/10/25 01:58:30;;;;;;;0.20;0.10;;;;;;;1.69;100.00;100855.88;5038545;28;20510;-50
2021/10/25 02:00:56;;;;;;;0.30;0.30;;;;;;;1.69;100.00;100864.63;5044687;28;20490;-50
2021/10/25 02:03:23;;;;;;;0.20;0.10;;;;;;;1.72;100.00;100858.53;5045800;28;20450;-50
2021/10/25 02:05:50;;;;;;;0.20;0.10;;;;;;;1.79;100.00;100852.56;5039370;28;20470;-50
2021/10/25 02:08:16;;;;;;;0.20;0.10;;;;;;;1.85;100.00;100854.38;5038265;28;20509;-51
2021/10/25 02:10:43;;;;;;;0.20;0.10;;;;;;;1.95;100.00;100857.19;5044310;28;20999;-50
2021/10/25 02:13:15;;;;;;;0.20;0.10;;;;;;;1.89;100.00;100857.06;5045415;28;20955;-51
2021/10/25 02:15:45;;;;;;;0.20;0.10;;;;;;;1.98;100.00;100854.59;5040111;28;20995;-50
2021/10/25 02:18:13;;;;;;;0.20;0.20;;;;;;;1.95;100.00;100854.56;5038721;28;20502;-50
2021/10/25 02:20:41;;;;;;;0.20;0.20;;;;;;;1.97;100.00;100863.31;5042818;28;20816;-51
2021/10/25 02:23:09;;;;;;;0.20;0.20;;;;;;;2.02;100.00;100852.91;5045351;28;20450;-50
2021/10/25 02:25:36;;;;;;;0.20;0.10;;;;;;;2.09;100.00;100854.78;5031697;28;20479;-51
2021/10/25 02:28:04;;;;;;;0.20;0.10;;;;;;;2.03;100.00;100852.03;5042646;28;20455;-50
2021/10/25 02:30:33;;;;;;;0.20;0.10;;;;;;;2.10;100.00;100858.28;5045709;28;20483;-51
2021/10/25 02:33:00;;;;;;;0.20;0.10;;;;;;;2.08;100.00;100853.00;5048725;28;20489;-51
2021/10/25 02:35:27;;;;;;;0.20;0.10;;;;;;;2.10;100.00;100847.78;5046345;28;20510;-51
2021/10/25 02:37:56;;;;;;;0.20;0.10;;;;;;;2.17;100.00;100847.88;5041994;28;20451;-50
2021/10/25 02:40:28;;;;;;;0.20;0.10;;;;;;;2.18;100.00;100846.13;5044851;28;20501;-50
2021/10/25 02:42:56;;;;;;;0.27;0.20;;;;;;;2.19;100.00;100846.16;5039989;28;20939;-50
2021/10/25 02:45:23;;;;;;;0.20;0.20;;;;;;;2.25;100.00;100848.00;5043795;28;20471;-50
2021/10/25 02:47:50;;;;;;;0.20;0.10;;;;;;;2.19;100.00;100840.91;5048742;28;20452;-50
2021/10/25 02:50:17;;;;;;;0.20;0.10;;;;;;;2.27;100.00;100848.91;5047343;28;20482;-50
2021/10/25 02:52:44;;;;;;;0.20;0.10;;;;;;;2.25;100.00;100851.50;5041730;28;20504;-51
2021/10/25 02:55:11;;;;;;;0.80;0.80;;;;;;;2.32;100.00;100845.47;5050351;28;20466;-50
2021/10/25 02:57:39;;;;;;;0.30;0.23;;;;;;;2.21;100.00;100847.09;5041610;28;20508;-50
2021/10/25 03:00:07;;;;;;;0.20;0.10;;;;;;;2.30;100.00;100847.19;5042648;28;20451;-51
2021/10/25 03:02:34;;;;;;;0.20;0.20;;;;;;;2.46;100.00;100855.25;5048534;28;20448;-50
2021/10/25 03:05:01;;;;;;;0.20;0.20;;;;;;;2.38;100.00;100849.94;5047784;28;20978;-50
2021/10/25 03:07:28;;;;;;;0.20;0.20;;;;;;;2.24;100.00;100854.09;5041442;28;20450;-50
2021/10/25 03:09:55;;;;;;;0.20;0.20;;;;;;;2.05;100.00;100852.94;5041649;28;20522;-51
2021/10/25 03:12:21;;;;;;;0.20;0.10;;;;;;;2.04;100.00;100848.56;5048002;28;20470;-50
2021/10/25 03:14:48;;;;;;;0.20;0.10;;;;;;;2.07;100.00;100848.63;5047954;28;20451;-51
2021/10/25 03:17:14;;;;;;;0.20;0.10;;;;;;;1.90;100.00;100852.72;5041456;28;20928;-51
2021/10/25 03:19:41;;;;;;;0.30;0.20;;;;;;;1.99;100.00;100858.97;5041313;28;20879;-50
2021/10/25 03:22:08;;;;;;;0.20;0.10;;;;;;;1.93;100.00;100856.28;5047615;28;20455;-50
2021/10/25 03:24:35;;;;;;;0.20;0.10;;;;;;;1.74;100.00;100860.31;5036726;28;20876;-50
2021/10/25 03:27:02;;;;;;;0.20;0.10;;;;;;;1.75;100.00;100871.69;5047022;28;20537;-51
2021/10/25 03:29:29;;;;;;;0.20;0.10;;;;;;;1.71;100.00;100862.91;5047753;28;20450;-51
2021/10/25 03:31:55;;;;;;;0.20;0.10;;;;;;;1.84;100.00;100864.00;5042156;28;20491;-50
2021/10/25 03:34:23;;;;;;;0.20;0.10;;;;;;;1.91;100.00;100860.59;5040820;28;20979;-50
2021/10/25 03:36:50;;;;;;;0.20;0.10;;;;;;;1.88;100.00;100857.94;5045862;28;20518;-51
2021/10/25 03:39:23;;;;;;;0.20;0.10;;;;;;;1.93;100.00;100851.03;5047528;28;20867;-50
2021/10/25 03:41:52;;;;;;;0.20;0.20;;;;;;;1.92;100.00;100851.91;5034535;28;20451;-50
2021/10/25 03:44:24;;;;;;;0.20;0.10;;;;;;;2.00;100.00;100857.25;5047567;28;20452;-50
2021/10/25 03:47:04;;;;;;;0.20;0.10;;;;;;;2.13;100.00;100845.19;5044986;28;21024;-52
2021/10/25 03:49:44;;;;;;;0.20;0.20;;;;;;;1.95;100.00;100843.19;5040334;28;20478;-51
2021/10/25 03:52:39;;;;;;;0.20;0.10;;;;;;;2.01;100.00;100844.16;5022940;28;20479;-51
2021/10/25 03:55:10;;;;;;;0.20;0.10;;;;;;;2.17;100.00;100839.13;5049559;28;21010;-52
2021/10/25 04:00:41;;;;;;;0.20;0.10;;;;;;;2.49;100.00;100831.72;5040628;28;20447;-51
2021/10/25 04:28:03;;;;;;;0.20;0.10;;;;;;;2.33;100.00;100822.75;5039838;28;20490;-51
2021/10/25 04:30:32;;;;;;;0.40;0.40;;;;;;;2.30;100.00;100822.72;5044078;28;20544;-51
2021/10/25 04:32:59;;;;;;;0.20;0.10;;;;;;;2.33;100.00;100815.78;5046024;28;20440;-50
2021/10/25 04:35:27;;;;;;;0.20;0.20;;;;;;;2.31;100.00;100817.47;5043417;28;20525;-51
2021/10/25 04:37:54;;;;;;;0.30;0.10;;;;;;;1.95;100.00;100817.88;5039621;28;20861;-50
2021/10/25 04:40:21;;;;;;;0.20;0.20;;;;;;;1.78;100.00;100811.47;5042568;28;20456;-51
2021/10/25 04:42:48;;;;;;;0.20;0.20;;;;;;;1.91;100.00;100808.16;5020288;28;20502;-52
2021/10/25 04:45:16;;;;;;;0.20;0.10;;;;;;;1.93;100.00;100814.34;5042419;28;20875;-52
2021/10/25 04:47:42;;;;;;;0.20;0.10;;;;;;;1.95;100.00;100815.25;5046338;28;20984;-52
2021/10/25 04:50:09;;;;;;;0.20;0.20;;;;;;;2.24;100.00;100809.53;5032373;28;20456;-52
2021/10/25 04:52:36;;;;;;;0.20;0.20;;;;;;;2.34;100.00;100801.81;5046656;28;20451;-52
2021/10/25 04:55:03;;;;;;;0.20;0.10;;;;;;;2.28;100.00;100808.69;5044044;28;20458;-52
2021/10/25 04:57:30;;;;;;;0.20;0.10;;;;;;;2.20;100.00;100810.34;5039503;28;20450;-52
2021/10/25 04:59:58;;;;;;;0.20;0.10;;;;;;;2.24;100.00;100799.03;5041180;28;20517;-52
2021/10/25 05:02:24;;;;;;;0.20;0.20;;;;;;;2.27;100.00;100796.44;5046117;28;20941;-51
2021/10/25 05:04:51;;;;;;;0.20;0.10;;;;;;;2.45;100.00;100799.28;5044377;28;20490;-52
2021/10/25 05:07:19;;;;;;;0.20;0.10;;;;;;;2.44;100.00;100794.91;5039180;28;20490;-52
2021/10/25 05:09:45;;;;;;;0.20;0.10;;;;;;;2.32;100.00;100798.25;5040579;28;20879;-52
2021/10/25 05:12:15;;;;;;;0.30;0.20;;;;;;;2.29;100.00;100789.47;5045595;28;20992;-52
2021/10/25 05:14:43;;;;;;;0.20;0.10;;;;;;;2.25;100.00;100793.81;5044928;28;20513;-51
2021/10/25 05:17:10;;;;;;;0.50;0.50;;;;;;;2.51;100.00;100793.25;5038735;28;20498;-52
2021/10/25 05:19:36;;;;;;;0.20;0.10;;;;;;;2.50;100.00;100792.38;5039790;28;20482;-51
2021/10/25 05:22:03;;;;;;;0.20;0.10;;;;;;;2.44;100.00;100792.28;5045995;28;20506;-52
2021/10/25 05:24:30;;;;;;;0.30;0.30;;;;;;;2.44;100.00;100794.03;5033965;28;21023;-51
2021/10/25 05:26:56;;;;;;;0.20;0.10;;;;;;;2.42;100.00;100799.25;5045558;28;20479;-52
2021/10/25 05:29:23;;;;;;;0.20;0.20;;;;;;;2.23;100.00;100799.91;5045481;28;20545;-52
2021/10/25 05:31:50;;;;;;;0.20;0.10;;;;;;;2.41;100.00;100802.75;5039023;28;20862;-52
2021/10/25 05:34:17;;;;;;;0.30;0.10;;;;;;;2.51;100.00;100812.50;5038707;28;20498;-51
2021/10/25 05:36:43;;;;;;;0.30;0.30;;;;;;;2.56;100.00;100807.31;5044896;28;20487;-52
2021/10/25 05:39:10;;;;;;;0.20;0.10;;;;;;;2.71;100.00;100803.97;5045737;28;20451;-52
2021/10/25 05:41:39;;;;;;;0.20;0.10;;;;;;;2.66;100.00;100806.56;5032184;28;20451;-52
2021/10/25 05:44:05;;;;;;;0.20;0.13;;;;;;;2.65;100.00;100810.94;5045311;28;20446;-51
2021/10/25 05:46:32;;;;;;;0.20;0.10;;;;;;;2.62;100.00;100805.66;5040129;28;20947;-51
2021/10/25 05:48:59;;;;;;;0.60;0.60;;;;;;;2.58;100.00;100795.97;5038672;28;20451;-52
2021/10/25 05:51:26;;;;;;;0.20;0.10;;;;;;;2.47;100.00;100805.47;5043624;28;20910;-52
2021/10/25 05:53:54;;;;;;;0.20;0.10;;;;;;;2.36;100.00;100796.56;5043125;28;20454;-52
2021/10/25 05:56:27;;;;;;;0.20;0.20;;;;;;;2.40;100.00;100798.38;5042590;28;20518;-52
2021/10/25 05:58:54;;;;;;;0.20;0.10;;;;;;;2.46;100.00;100801.06;5045552;28;20521;-52
2021/10/25 06:01:25;;;;;;;0.20;0.10;;;;;;;2.31;100.00;100787.75;5043476;28;20447;-52
2021/10/25 06:03:59;;;;;;;0.20;0.10;;;;;;;2.57;100.00;100780.19;5042638;28;20439;-52
2021/10/25 06:06:25;;;;;;;0.30;0.10;;;;;;;2.50;100.00;100786.25;5044596;28;20459;-51
2021/10/25 06:08:52;;;;;;;0.20;0.20;;;;;;;2.45;100.00;100785.31;5049509;28;20452;-52
2021/10/25 06:11:18;;;;;;;0.20;0.10;;;;;;;2.47;100.00;100784.47;5047194;28;20489;-51
2021/10/25 06:13:45;;;;;;;0.30;0.30;;;;;;;2.35;100.00;100789.56;5042462;28;20504;-51
2021/10/25 06:18:39;;;;;;;0.20;0.20;;;;;;;2.31;100.00;100796.50;5049442;28;20815;-52
2021/10/25 06:21:07;;;;;;;0.30;0.23;;;;;;;2.47;100.00;100797.59;5047400;28;20501;-52
2021/10/25 06:23:33;;;;;;;0.30;0.30;;;;;;;2.48;100.00;100801.97;5038555;28;20455;-52
2021/10/25 06:26:02;;;;;;;0.20;0.10;;;;;;;2.56;100.00;100816.06;5047247;28;20915;-52
2021/10/25 06:28:30;;;;;;;0.30;0.10;;;;;;;2.56;100.00;100837.03;5042300;28;20450;-52
2021/10/25 06:31:07;;;;;;;0.20;0.10;;;;;;;2.67;100.00;100822.31;5043383;28;20484;-52
2021/10/25 06:33:45;;;;;;;0.20;0.10;;;;;;;2.85;100.00;100812.88;5032460;28;20526;-52
2021/10/25 06:36:13;;;;;;;0.20;0.10;;;;;;;2.32;100.00;100834.97;5052160;28;20474;-52
2021/10/25 06:38:58;;;;;;;0.20;0.10;;;;;;;2.53;100.00;100830.88;5045402;28;20450;-51
2021/10/25 06:41:25;;;;;;;0.20;0.10;;;;;;;2.58;100.00;100835.31;5042048;28;20466;-52
2021/10/25 06:43:52;;;;;;;0.20;0.10;;;;;;;2.61;100.00;100834.50;5043364;28;20443;-51
2021/10/25 06:46:19;;;;;;;0.30;0.20;;;;;;;2.72;100.00;100831.97;5048567;28;20517;-51
2021/10/25 06:48:46;;;;;;;0.20;0.10;;;;;;;2.43;100.00;100832.50;5048073;28;20446;-51
2021/10/25 06:51:13;;;;;;;0.30;0.30;;;;;;;2.18;100.00;100839.16;5041597;28;21011;-51
2021/10/25 06:53:40;;;;;;;0.20;0.10;;;;;;;2.26;100.00;100842.78;5042081;28;20526;-51
2021/10/25 06:56:08;;;;;;;0.30;0.20;;;;;;;2.26;100.00;100850.63;5048481;28;20900;-51
2021/10/25 06:58:35;;;;;;;0.20;0.20;;;;;;;2.45;100.00;100846.50;5048380;28;20500;-51
2021/10/25 07:01:02;;;;;;;0.30;0.20;;;;;;;2.52;100.00;100842.25;5028996;28;20897;-51
2021/10/25 07:03:30;;;;;;;0.20;0.20;;;;;;;2.66;100.00;100831.06;5041462;28;20447;-50
2021/10/25 07:06:00;;;;;;;0.20;0.20;;;;;;;2.66;100.00;100838.06;5047706;28;20471;-51
2021/10/25 07:08:29;;;;;;;0.20;0.13;;;;;;;2.62;100.00;100841.50;5048511;28;20497;-52
2021/10/25 07:10:57;;;;;;;0.20;0.10;;;;;;;2.66;100.00;100843.31;5043388;28;20936;-52
2021/10/25 07:13:25;;;;;;;0.20;0.20;;;;;;;3.06;100.00;100846.38;5040856;28;20474;-52
2021/10/25 07:16:12;;;;;;;0.20;0.10;;;;;;;2.99;100.00;100842.81;5045880;28;20479;-51
2021/10/25 07:18:48;;;;;;;0.20;0.10;;;;;;;3.00;100.00;100854.19;5048111;28;20455;-52
2021/10/25 08:07:53;;;;;;;0.30;0.10;;;;;;;3.35;100.00;100863.31;5046491;28;20447;-49
2021/10/25 08:10:31;;;;;;;0.20;0.13;;;;;;;3.40;100.00;100855.47;5046942;28;21010;-49
2021/10/25 08:13:02;;;;;;;0.20;0.10;;;;;;;3.73;100.00;100863.69;5046235;28;20486;-49
2021/10/25 08:15:39;;;;;;;0.20;0.13;;;;;;;3.46;100.00;100851.19;5039893;28;20467;-50
2021/10/25 08:18:13;;;;;;;1.03;0.53;;;;;;;3.61;100.00;100871.47;5040313;28;20945;-49
2021/10/25 08:20:40;;;;;;;0.20;0.10;;;;;;;3.91;100.00;100869.94;5044964;28;20451;-49
2021/10/25 08:23:06;;;;;;;0.20;0.20;;;;;;;4.18;100.00;100875.41;5046624;28;20504;-49
2021/10/25 08:25:33;;;;;;;0.20;0.10;;;;;;;3.55;100.00;100872.25;5030931;28;20479;-49
2021/10/25 08:28:00;;;;;;;0.30;0.20;;;;;;;3.62;100.00;100867.97;5039880;28;20853;-49
2021/10/25 08:30:27;;;;;;;0.20;0.20;;;;;;;3.83;100.00;100860.25;5044130;28;20452;-49
2021/10/25 08:33:10;;;;;;;0.20;0.20;;;;;;;3.80;100.00;100865.47;5046460;28;20488;-49
2021/10/25 08:40:51;;;;;;;0.20;0.10;;;;;;;3.77;100.00;100862.84;5039525;28;20443;-49
2021/10/25 08:43:18;;;;;;;4.03;0.80;;;;;;;3.65;100.00;100859.22;5045011;28;20444;-49
2021/10/25 08:45:51;;;;;;;0.20;0.20;;;;;;;3.71;100.00;100852.28;5046310;28;20992;-48
2021/10/25 08:48:18;;;;;;;0.20;0.10;;;;;;;3.76;100.00;100849.69;5042353;28;20447;-49
2021/10/25 08:50:44;;;;;;;0.20;0.13;;;;;;;3.95;100.00;100853.31;5039783;28;20452;-49
2021/10/25 08:53:11;;;;;;;0.20;0.10;;;;;;;4.18;100.00;100851.72;5043644;28;20588;-49
2021/10/25 08:55:38;;;;;;;0.27;0.17;;;;;;;3.98;100.00;100848.09;5046655;28;20471;-49
2021/10/25 08:58:06;;;;;;;0.20;0.10;;;;;;;3.94;100.00;100849.81;5042684;28;20451;-49
2021/10/25 09:00:45;;;;;;;0.20;0.10;;;;;;;3.69;100.00;100853.09;5039533;28;20494;-49
2021/10/25 09:03:12;;;;;;;0.20;0.10;;;;;;;3.77;100.00;100843.56;5041392;28;20447;-49
2021/10/25 09:05:40;;;;;;;0.20;0.10;;;;;;;3.59;100.00;100843.41;5046147;28;20475;-48
2021/10/25 09:08:10;;;;;;;0.20;0.10;;;;;;;3.92;100.00;100848.91;5044431;28;20791;-49
2021/10/25 09:10:41;;;;;;;0.20;0.20;;;;;;;3.57;100.00;100848.66;5038988;28;20454;-48
2021/10/25 09:13:09;;;;;;;2.10;2.00;;;;;;;3.88;100.00;100852.41;5039701;28;20518;-48
2021/10/25 09:15:39;;;;;;;0.20;0.10;;;;;;;3.74;100.00;100843.53;5045788;28;20887;-49
2021/10/25 09:18:14;;;;;;;0.20;0.10;;;;;;;3.83;100.00;100843.59;5045867;28;20447;-49
2021/10/25 09:20:47;;;;;;;0.20;0.10;;;;;;;3.85;100.00;100839.25;5041406;28;20446;-48
2021/10/25 09:23:17;;;;;;;0.20;0.10;;;;;;;3.94;100.00;100835.78;5038463;28;20504;-49
2021/10/25 09:25:44;;;;;;;0.30;0.10;;;;;;;4.04;100.00;100830.59;5042796;28;20483;-49
2021/10/25 09:28:24;;;;;;;0.30;0.30;;;;;;;3.98;100.00;100837.59;5021719;28;20512;-49
2021/10/25 09:30:54;;;;;;;0.20;0.10;;;;;;;3.95;100.00;100829.66;5040333;28;20458;-49
2021/10/25 09:33:22;;;;;;;0.20;0.10;;;;;;;4.04;100.00;100833.22;5045511;28;21007;-48
2021/10/25 09:36:01;;;;;;;0.87;0.87;;;;;;;3.92;100.00;100830.50;5045476;28;21056;-49
2021/10/25 09:39:19;;;;;;;0.20;0.10;;;;;;;4.01;100.00;100822.69;5041043;28;20473;-49
2021/10/25 09:49:59;;;;;;;1.03;1.03;;;;;;;4.03;100.00;100815.69;5031161;28;20512;-49
2021/10/25 09:52:30;;;;;;;0.20;0.10;;;;;;;4.11;100.00;100815.72;5038909;28;20494;-49
2021/10/25 09:55:05;;;;;;;0.20;0.20;;;;;;;4.45;100.00;100819.44;5030251;28;20474;-49
2021/10/25 09:57:41;;;;;;;0.20;0.20;;;;;;;4.43;100.00;100811.53;5038846;28;20487;-50
2021/10/25 10:00:10;;;;;;;0.20;0.20;;;;;;;4.72;100.00;100821.31;5039936;28;20444;-50
2021/10/25 10:02:37;;;;;;;0.30;0.20;;;;;;;4.97;100.00;100820.50;5045169;28;20490;-49
2021/10/25 10:05:06;;;;;;;0.30;0.20;;;;;;;4.85;100.00;100820.47;5045023;28;20951;-49
2021/10/25 10:07:33;;;;;;;0.30;0.10;;;;;;;4.94;100.00;100814.38;5045407;28;21002;-49
2021/10/25 10:10:01;;;;;;;0.30;0.20;;;;;;;4.67;100.00;100818.66;5045466;28;20451;-50
2021/10/25 10:12:28;;;;;;;0.30;0.20;;;;;;;4.89;100.00;100808.19;5039296;28;20525;-49
2021/10/25 10:15:00;;;;;;;0.30;0.20;;;;;;;5.01;100.00;100809.09;5038514;28;20514;-49
2021/10/25 10:17:48;;;;;;;0.20;0.20;;;;;;;4.96;100.00;100812.63;5043796;28;20509;-50
2021/10/25 10:20:30;;;;;;;0.30;0.20;;;;;;;5.09;100.00;100811.75;5045148;28;20447;-49
2021/10/25 10:23:02;;;;;;;0.30;0.10;;;;;;;5.23;100.00;100827.59;5027972;28;20439;-50
2021/10/25 10:25:50;;;;;;;0.23;0.20;;;;;;;5.48;100.00;100828.47;5039022;28;20548;-49
2021/10/25 10:28:20;;;;;;;0.30;0.20;;;;;;;5.41;100.00;100822.34;5037169;28;20455;-50
2021/10/25 10:30:49;;;;;;;4.33;2.47;;;;;;;5.61;100.00;100814.44;5040936;28;20452;-50
2021/10/25 10:33:16;;;;;;;0.30;0.20;;;;;;;5.73;100.00;100822.34;5044459;28;20992;-50
2021/10/25 10:35:44;;;;;;;0.30;0.20;;;;;;;6.01;100.00;100817.06;5045007;28;20528;-48
2021/10/25 10:38:12;;;;;;;0.57;0.57;;;;;;;6.60;100.00;100809.00;5038635;28;20514;-49
2021/10/25 10:40:43;;;;;;;0.90;0.90;;;;;;;5.92;100.00;100818.00;5038281;28;20853;-48
2021/10/25 10:43:24;;;;;;;0.77;0.70;;;;;;;6.01;100.00;100806.53;5026897;28;20827;-48
2021/10/25 10:46:09;;;;;;;0.30;0.20;;;;;;;6.54;100.00;100809.91;5038121;28;20468;-49
2021/10/25 10:48:38;;;;;;;1.10;0.90;;;;;;;6.06;100.00;100807.41;5043292;28;20502;-49
2021/10/25 10:51:14;;;;;;;0.30;0.20;;;;;;;6.33;100.00;100810.00;5048877;28;20456;-49
2021/10/25 10:53:53;;;;;;;0.30;0.20;;;;;;;6.00;100.00;100810.03;5044099;28;20486;-49
2021/10/25 10:56:28;;;;;;;0.30;0.20;;;;;;;6.21;100.00;100799.47;5046602;28;20467;-49
2021/10/25 11:01:56;;;;;;;0.30;0.20;;;;;;;6.96;100.00;100802.66;5006057;28;20506;-49
2021/10/25 11:04:33;;;;;;;2.03;2.00;;;;;;;7.05;100.00;100807.91;5031229;28;20461;-49
2021/10/25 11:07:02;;;;;;;0.30;0.20;;;;;;;7.21;100.00;100810.44;5041432;28;21030;-49
2021/10/25 11:09:32;;;;;;;0.30;0.17;;;;;;;7.05;100.00;100805.25;5045711;28;20447;-49
2021/10/25 11:12:21;;;;;;;0.30;0.20;;;;;;;7.51;100.00;100799.63;5048257;28;20570;-49
2021/10/25 11:14:49;;;;;;;0.47;0.47;;;;;;;7.55;100.00;100803.16;5047962;28;20509;-49
2021/10/25 11:19:49;;;;;;;0.30;0.20;;;;;;;7.48;100.00;100786.44;5041253;28;20452;-49
2021/10/25 11:22:32;;;;;;;0.30;0.20;;;;;;;7.60;100.00;100783.69;5030708;28;20795;-49
2021/10/25 11:25:00;;;;;;;0.43;0.40;;;;;;;7.92;100.00;100783.38;5023676;28;20446;-50
2021/10/25 11:27:32;;;;;;;0.30;0.20;;;;;;;7.55;100.00;100782.00;5044725;28;20866;-48
2021/10/25 11:30:09;;;;;;;0.80;0.80;;;;;;;7.66;100.00;100783.63;5047893;28;20963;-47
2021/10/25 11:32:37;;;;;;;13.43;1.40;;;;;;;7.81;100.00;100774.72;5046909;28;20540;-48
2021/10/25 11:35:06;;;;;;;0.40;0.30;;;;;;;7.56;100.00;100768.75;5041830;28;20508;-49
2021/10/25 11:37:33;;;;;;;0.30;0.20;;;;;;;7.72;100.00;100774.78;5040767;28;20861;-48
2021/10/25 11:40:06;;;;;;;0.30;0.20;;;;;;;7.76;100.00;100759.75;5046860;28;20510;-48
2021/10/25 11:42:36;;;;;;;0.30;0.20;;;;;;;7.76;100.00;100749.16;5047816;28;20451;-48
2021/10/25 11:45:15;;;;;;;0.30;0.20;;;;;;;7.95;100.00;100764.84;5043225;28;20489;-49
2021/10/25 11:47:44;;;;;;;0.30;0.20;;;;;;;7.94;100.00;100763.06;5040962;28;20443;-48
2021/10/25 11:50:20;;;;;;;0.30;0.20;;;;;;;8.29;100.00;100745.94;5043112;28;20452;-49
2021/10/25 11:52:49;;;;;;;0.60;0.60;;;;;;;7.98;100.00;100741.00;5047218;28;20493;-48
2021/10/25 11:55:22;;;;;;;2.60;2.50;;;;;;;8.26;100.00;100740.69;5047081;28;20524;-48
2021/10/25 11:57:58;;;;;;;0.30;0.20;;;;;;;8.13;100.00;100739.94;5046858;28;20506;-48
2021/10/25 12:00:27;;;;;;;5.30;0.60;;;;;;;8.41;100.00;100735.22;5046827;28;20454;-48
2021/10/25 12:02:55;;;;;;;0.30;0.20;;;;;;;7.98;100.00;100741.00;5042597;28;20824;-48
2021/10/25 12:05:25;;;;;;;0.30;0.20;;;;;;;8.38;100.00;100735.28;5040365;28;20997;-49
2021/10/25 12:07:54;;;;;;;0.30;0.30;;;;;;;8.49;100.00;100727.16;5044553;28;20452;-48
2021/10/25 12:10:24;;;;;;;0.30;0.20;;;;;;;8.43;100.00;100729.91;5047506;28;20514;-49
2021/10/25 12:13:00;;;;;;;0.30;0.20;;;;;;;8.34;100.00;100720.28;5043920;28;20908;-49
2021/10/25 12:15:29;;;;;;;0.70;0.70;;;;;;;8.53;100.00;100708.59;5040207;28;20462;-49
2021/10/25 12:18:05;;;;;;;0.50;0.47;;;;;;;8.50;100.00;100694.50;5042151;28;20459;-49
2021/10/25 12:20:39;;;;;;;0.30;0.20;;;;;;;8.87;100.00;100701.00;5027638;28;20538;-49
2021/10/25 12:23:23;;;;;;;0.30;0.20;;;;;;;8.98;100.00;100692.91;5038458;28;20530;-49
2021/10/25 12:25:57;;;;;;;1.67;1.27;;;;;;;9.05;100.00;100691.91;5042871;28;20479;-49
2021/10/25 12:28:25;;;;;;;0.30;0.20;;;;;;;8.93;100.00;100697.41;5039664;28;20516;-49
2021/10/25 12:31:11;;;;;;;0.60;0.60;;;;;;;8.96;100.00;100700.00;5042623;28;20511;-49
2021/10/25 12:33:39;;;;;;;0.40;0.20;;;;;;;8.93;100.00;100697.41;5042422;28;20865;-49
2021/10/25 12:36:19;;;;;;;0.37;0.30;;;;;;;8.71;100.00;100690.66;5050796;28;20467;-48
2021/10/25 12:38:50;;;;;;;0.30;0.20;;;;;;;9.15;100.00;100682.03;5044511;28;20496;-49
2021/10/25 12:41:17;;;;;;;0.30;0.20;;;;;;;9.21;100.00;100681.94;5040029;28;20455;-48
2021/10/25 12:43:47;;;;;;;0.60;0.60;;;;;;;8.89;100.00;100687.72;5041574;28;20861;-48
2021/10/25 12:46:19;;;;;;;0.43;0.40;;;;;;;9.08;100.00;100677.72;5046708;28;20464;-49
2021/10/25 12:48:52;;;;;;;0.30;0.20;;;;;;;9.17;100.00;100680.22;5046302;28;20492;-49
2021/10/25 12:51:20;;;;;;;0.33;0.23;;;;;;;9.39;100.00;100681.59;5045974;28;20467;-49
2021/10/25 12:53:51;;;;;;;0.30;0.20;;;;;;;9.40;100.00;100675.41;5042600;28;20496;-49
2021/10/25 12:56:28;;;;;;;2.97;2.77;;;;;;;9.31;100.00;100675.56;5044684;28;20471;-49
2021/10/25 12:58:59;;;;;;;1.23;1.23;;;;;;;9.38;100.00;100660.41;5046363;28;20443;-49
2021/10/25 13:01:25;;;;;;;0.87;0.77;;;;;;;9.57;100.00;100661.81;5043388;28;20478;-49
2021/10/25 13:03:59;;;;;;;0.30;0.20;;;;;;;9.77;100.00;100661.47;5039184;28;20450;-49
2021/10/25 13:06:30;;;;;;;1.03;1.03;;;;;;;9.84;100.00;100647.16;5041477;28;20467;-49
2021/10/25 13:09:10;;;;;;;0.30;0.20;;;;;;;9.94;100.00;100647.84;5046164;28;20964;-49
2021/10/25 13:11:38;;;;;;;0.47;0.47;;;;;;;10.01;100.00;100637.09;5045857;28;20442;-49